This is the latest recevied weather packets stored in our database for station/object NM5PB. If no packets are shown the sender has not sent any weather packets the latest 10 day(s).
| Time | Temp. | Humidity | Pressure | Rain* | Wind** | Luminosity | Snow |
|---|---|---|---|---|---|---|---|
| 1777561864 | 9.44° C | 63% | - | 0 mm | - | - | - |
| 1777561264 | 9.44° C | 64% | - | 0 mm | - | - | - |
| 1777560664 | 10° C | 63% | - | 0 mm | - | - | - |
| 1777560064 | 10° C | 65% | - | 0 mm | - | - | - |
| 1777559464 | 10° C | 65% | - | 0 mm | - | - | - |
| 1777558864 | 9.44° C | 65% | - | 0 mm | - | - | - |
| 1777558264 | 8.89° C | 67% | - | 0 mm | - | - | - |
| 1777557664 | 8.89° C | 69% | - | 0 mm | - | - | - |
| 1777557064 | 8.33° C | 69% | - | 0 mm | - | - | - |
| 1777556464 | 8.33° C | 69% | - | 0 mm | - | - | - |
| 1777555864 | 7.78° C | 71% | - | 0 mm | - | - | - |
| 1777555264 | 7.78° C | 73% | - | 0 mm | - | - | - |
| 1777554664 | 7.22° C | 77% | - | 0 mm | - | - | - |
| 1777554064 | 6.11° C | 83% | - | 0 mm | - | - | - |
| 1777553464 | 5.56° C | 86% | - | 0 mm | - | - | - |
| 1777552864 | 5° C | 88% | - | 0 mm | - | - | - |
| 1777552264 | 3.89° C | 96% | - | 0 mm | - | - | - |
| 1777551664 | 2.78° C | 96% | - | 0 mm | - | - | - |
| 1777551064 | 2.22° C | 96% | - | 0 mm | - | - | - |
| 1777550464 | 2.22° C | 96% | - | 0 mm | - | - | - |
| 1777549864 | 1.67° C | 96% | - | 0 mm | - | - | - |
| 1777549264 | 1.67° C | 97% | - | 0 mm | - | - | - |
| 1777548664 | 1.67° C | 96% | - | 0 mm | - | - | - |
| 1777548064 | 1.67° C | 96% | - | 0 mm | - | - | - |
| 1777547464 | 1.11° C | 96% | - | 0 mm | - | - | - |
* Rain latest hour (hover to see other rain measurements)
** Current wind speed in m/s (hover to see current wind gust speed)